createdAt,value
2019-05-09T00:00:38.130Z,98827.89
2019-05-09T00:03:09.047Z,98830.41
2019-05-09T00:05:39.777Z,98826.52
2019-05-09T00:08:10.686Z,98818.14
2019-05-09T00:10:44.222Z,98828.30
2019-05-09T00:13:14.034Z,98832.12
2019-05-09T00:15:45.878Z,98829.06
2019-05-09T00:18:17.019Z,98831.74
2019-05-09T00:20:49.657Z,98825.36
2019-05-09T00:23:20.326Z,98823.26
2019-05-09T00:25:53.656Z,98822.77
2019-05-09T00:28:25.263Z,98821.41
2019-05-09T00:30:57.852Z,98826.52
2019-05-09T00:33:34.298Z,98821.98
2019-05-09T00:36:05.296Z,98820.17
2019-05-09T00:38:37.593Z,98834.17
2019-05-09T00:41:09.709Z,98833.86
2019-05-09T00:43:43.608Z,98831.45
2019-05-09T00:46:23.634Z,98831.08
2019-05-09T00:49:04.908Z,98836.64
2019-05-09T00:51:35.538Z,98838.45
2019-05-09T00:54:06.976Z,98839.23
2019-05-09T00:56:37.644Z,98841.73
2019-05-09T00:59:08.585Z,98847.98
2019-05-09T01:01:39.546Z,98839.56
2019-05-09T01:04:10.477Z,98843.59
2019-05-09T01:06:43.448Z,98840.41
2019-05-09T01:09:14.155Z,98842.19
2019-05-09T01:11:45.156Z,98846.89
2019-05-09T01:14:16.085Z,98847.35
2019-05-09T01:16:47.082Z,98847.46
2019-05-09T01:19:18.036Z,98852.23
2019-05-09T01:21:48.776Z,98845.17
2019-05-09T01:24:19.809Z,98847.14
2019-05-09T01:26:50.720Z,98844.46
2019-05-09T01:29:23.051Z,98844.77
2019-05-09T01:31:55.802Z,98847.85
2019-05-09T01:34:28.400Z,98841.68
2019-05-09T01:37:06.524Z,98849.77
2019-05-09T01:39:37.774Z,98852.36
2019-05-09T01:42:08.481Z,98850.44
2019-05-09T01:44:39.446Z,98859.64
2019-05-09T01:47:10.400Z,98862.91
2019-05-09T01:49:43.018Z,98862.27
2019-05-09T01:52:13.853Z,98855.28
2019-05-09T01:54:46.199Z,98863.93
2019-05-09T01:57:16.947Z,98871.94
2019-05-09T01:59:48.877Z,98869.59
2019-05-09T02:02:19.571Z,98866.72
2019-05-09T02:04:53.310Z,98864.67
2019-05-09T02:07:24.078Z,98865.73
2019-05-09T02:09:55.048Z,98870.73
2019-05-09T02:12:25.956Z,98871.83
2019-05-09T02:15:03.728Z,98870.22
2019-05-09T02:18:00.678Z,98877.48
2019-05-09T02:20:24.168Z,98874.85
2019-05-09T02:22:54.968Z,98867.94
2019-05-09T02:25:25.907Z,98870.13
2019-05-09T02:27:56.854Z,98866.55
2019-05-09T02:30:27.640Z,98867.84
2019-05-09T02:32:58.600Z,98869.28
2019-05-09T02:35:38.830Z,98867.02
2019-05-09T02:38:02.203Z,98872.35
2019-05-09T02:40:32.880Z,98878.55
2019-05-09T02:43:03.666Z,98878.55
2019-05-09T02:45:41.870Z,98874.94
2019-05-09T02:48:12.597Z,98873.49
2019-05-09T02:50:43.521Z,98870.50
2019-05-09T02:53:14.511Z,98871.13
2019-05-09T02:55:45.433Z,98860.75
2019-05-09T02:58:20.416Z,98865.45
2019-05-09T03:01:00.751Z,98862.71
2019-05-09T03:03:33.104Z,98859.13
2019-05-09T03:06:04.143Z,98864.58
2019-05-09T03:08:38.215Z,98869.52
2019-05-09T03:11:09.739Z,98867.27
2019-05-09T03:13:40.462Z,98867.47
2019-05-09T03:16:12.810Z,98871.34
2019-05-09T03:18:43.441Z,98874.22
2019-05-09T03:21:19.126Z,98875.90
2019-05-09T03:23:50.243Z,98881.03
2019-05-09T03:26:22.586Z,98875.18
2019-05-09T03:29:11.376Z,98880.83
2019-05-09T03:31:43.626Z,98879.69
2019-05-09T03:34:14.305Z,98870.86
2019-05-09T03:36:47.574Z,98874.73
2019-05-09T03:39:18.529Z,98850.02
2019-05-09T03:41:49.623Z,98872.90
2019-05-09T03:44:20.591Z,98868.19
2019-05-09T03:46:57.901Z,98867.05
2019-05-09T03:49:28.487Z,98882.47
2019-05-09T03:52:00.650Z,98884.52
2019-05-09T03:54:31.627Z,98881.34
2019-05-09T03:57:04.910Z,98888.00
2019-05-09T03:59:37.527Z,98890.66
2019-05-09T04:02:10.257Z,98896.00
2019-05-09T04:04:41.229Z,98893.02
2019-05-09T04:07:11.901Z,98897.22
2019-05-09T04:09:42.969Z,98883.06
2019-05-09T04:12:14.057Z,98879.27
2019-05-09T04:14:47.936Z,98883.06
2019-05-09T04:17:20.258Z,98889.09
2019-05-09T04:19:51.345Z,98889.33
2019-05-09T04:22:23.115Z,98888.27
2019-05-09T04:24:54.416Z,98893.11
2019-05-09T04:27:29.854Z,98896.63
2019-05-09T04:30:00.665Z,98892.22
2019-05-09T04:32:31.535Z,98884.40
2019-05-09T04:35:02.232Z,98887.36
2019-05-09T04:37:33.750Z,98881.22
2019-05-09T04:40:08.121Z,98874.69
2019-05-09T04:42:42.967Z,98870.70
2019-05-09T04:45:17.250Z,98879.55
2019-05-09T04:47:47.898Z,98879.37
2019-05-09T04:50:23.470Z,98877.07
2019-05-09T04:52:51.744Z,98888.49
2019-05-09T04:55:27.243Z,98895.20
2019-05-09T04:58:00.223Z,98893.75
2019-05-09T05:00:35.084Z,98894.58
2019-05-09T05:03:07.951Z,98893.24
2019-05-09T05:05:40.140Z,98894.98
2019-05-09T05:08:12.078Z,98896.12
2019-05-09T05:10:42.751Z,98891.26
2019-05-09T05:13:24.137Z,98890.34
2019-05-09T05:15:47.507Z,98885.83
2019-05-09T05:18:20.280Z,98897.85
2019-05-09T05:20:52.209Z,98899.79
2019-05-09T05:23:24.908Z,98898.14
2019-05-09T05:25:58.017Z,98893.20
2019-05-09T05:28:28.771Z,98901.10
2019-05-09T05:31:00.456Z,98906.64
2019-05-09T05:33:41.668Z,98911.87
2019-05-09T05:36:20.005Z,98907.76
2019-05-09T05:38:50.786Z,98913.39
2019-05-09T05:41:21.483Z,98921.38
2019-05-09T05:43:52.222Z,98917.08
2019-05-09T05:46:22.670Z,98917.16
2019-05-09T05:48:57.802Z,98919.84
2019-05-09T05:51:30.926Z,98917.88
2019-05-09T05:54:02.755Z,98926.52
2019-05-09T05:56:33.543Z,98926.09
2019-05-09T05:59:04.594Z,98931.33
2019-05-09T06:01:38.081Z,98933.44
2019-05-09T06:04:08.288Z,98929.55
2019-05-09T06:06:39.334Z,98930.11
2019-05-09T06:09:10.920Z,98934.78
2019-05-09T06:11:42.142Z,98933.36
2019-05-09T06:14:12.852Z,98931.51
2019-05-09T06:16:43.532Z,98929.14
2019-05-09T06:19:14.219Z,98926.05
2019-05-09T06:21:45.142Z,98927.98
2019-05-09T06:24:17.723Z,98923.77
2019-05-09T06:26:48.337Z,98929.20
2019-05-09T06:29:19.405Z,98925.78
2019-05-09T06:31:50.599Z,98931.13
2019-05-09T06:34:21.308Z,98924.88
2019-05-09T06:36:52.384Z,98922.70
2019-05-09T06:39:23.238Z,98929.08
2019-05-09T06:41:53.913Z,98926.06
2019-05-09T06:44:28.221Z,98934.59
2019-05-09T06:47:00.819Z,98927.94
2019-05-09T06:49:33.171Z,98925.39
2019-05-09T06:52:04.229Z,98924.95
2019-05-09T06:54:41.777Z,98918.94
2019-05-09T06:57:13.401Z,98911.27
2019-05-09T06:59:44.850Z,98910.51
2019-05-09T07:02:20.099Z,98915.48
2019-05-09T07:04:52.779Z,98911.02
2019-05-09T07:07:34.021Z,98918.31
2019-05-09T07:10:07.953Z,98916.66
2019-05-09T07:12:38.739Z,98912.89
2019-05-09T07:15:09.759Z,98917.53
2019-05-09T07:17:40.448Z,98914.88
2019-05-09T07:20:11.468Z,98911.55
2019-05-09T07:22:48.123Z,98909.20
2019-05-09T07:25:23.879Z,98917.25
2019-05-09T07:27:54.565Z,98914.65
2019-05-09T07:30:43.550Z,98915.01
2019-05-09T07:33:19.551Z,98911.34
2019-05-09T07:35:50.794Z,98913.47
2019-05-09T07:38:31.537Z,98919.50
2019-05-09T07:41:02.485Z,98919.92
2019-05-09T07:43:33.628Z,98916.86
2019-05-09T07:46:08.530Z,98911.56
2019-05-09T07:48:40.350Z,98911.23
2019-05-09T07:51:11.181Z,98903.76
2019-05-09T07:53:42.489Z,98915.23
2019-05-09T07:56:14.281Z,98919.67
2019-05-09T07:58:45.000Z,98914.05
2019-05-09T08:01:15.679Z,98905.98
2019-05-09T08:03:48.925Z,98908.34
2019-05-09T08:06:19.405Z,98912.22
2019-05-09T08:08:50.379Z,98921.55
2019-05-09T08:11:21.079Z,98925.06
2019-05-09T08:13:52.304Z,98913.41
2019-05-09T08:16:23.272Z,98910.52
2019-05-09T08:18:53.964Z,98906.14
2019-05-09T08:21:24.972Z,98907.37
2019-05-09T08:23:58.095Z,98910.36
2019-05-09T08:26:30.064Z,98918.47
2019-05-09T08:29:02.525Z,98928.55
2019-05-09T08:31:33.240Z,98925.06
2019-05-09T08:34:03.897Z,98920.88
2019-05-09T08:36:34.914Z,98925.00
2019-05-09T08:39:08.445Z,98933.91
2019-05-09T08:41:39.284Z,98934.11
2019-05-09T08:44:10.484Z,98935.13
2019-05-09T08:46:41.616Z,98933.37
2019-05-09T08:49:12.327Z,98939.00
2019-05-09T08:52:06.630Z,98931.61
2019-05-09T08:54:38.019Z,98948.38
2019-05-09T08:57:10.357Z,98938.17
2019-05-09T08:59:41.396Z,98941.52
2019-05-09T09:02:16.543Z,98939.72
2019-05-09T09:04:44.799Z,98941.01
2019-05-09T09:07:15.486Z,98945.68
2019-05-09T09:09:48.237Z,98944.36
2019-05-09T09:12:29.864Z,98948.59
2019-05-09T09:14:51.465Z,98939.09
2019-05-09T09:17:22.498Z,98943.16
2019-05-09T09:19:53.274Z,98942.77
2019-05-09T09:22:24.325Z,98941.44
2019-05-09T09:24:58.602Z,98935.02
2019-05-09T09:27:31.541Z,98928.77
2019-05-09T09:30:16.442Z,98921.73
2019-05-09T09:32:35.388Z,98920.66
2019-05-09T09:35:08.987Z,98925.39
2019-05-09T09:37:48.314Z,98929.09
2019-05-09T09:40:13.515Z,98923.20
2019-05-09T09:42:44.545Z,98915.42
2019-05-09T09:45:18.404Z,98915.39
2019-05-09T09:47:49.833Z,98916.15
2019-05-09T09:50:20.531Z,98924.24
2019-05-09T09:52:51.918Z,98925.64
2019-05-09T09:55:23.101Z,98923.42
2019-05-09T09:57:57.701Z,98922.28
2019-05-09T10:01:04.053Z,98927.57
2019-05-09T10:03:35.748Z,98925.98
2019-05-09T10:06:06.932Z,98934.12
2019-05-09T10:08:39.510Z,98937.38
2019-05-09T10:11:11.537Z,98929.12
2019-05-09T10:13:42.784Z,98930.94
2019-05-09T10:16:29.041Z,98927.54
2019-05-09T10:18:58.608Z,98921.59
2019-05-09T10:21:33.577Z,98919.92
2019-05-09T10:24:05.053Z,98919.39
2019-05-09T10:26:39.022Z,98916.35
2019-05-09T10:29:09.981Z,98907.67
2019-05-09T10:31:41.124Z,98919.17
2019-05-09T10:34:12.015Z,98915.78
2019-05-09T10:36:42.685Z,98911.05
2019-05-09T10:39:13.690Z,98910.66
2019-05-09T10:41:44.649Z,98911.34
2019-05-09T10:44:18.025Z,98908.16
2019-05-09T10:47:02.100Z,98901.80
2019-05-09T10:49:31.901Z,98902.05
2019-05-09T10:52:02.911Z,98897.48
2019-05-09T10:54:34.891Z,98893.25
2019-05-09T10:57:05.681Z,98895.92
2019-05-09T10:59:37.659Z,98893.20
2019-05-09T11:02:09.515Z,98894.89
2019-05-09T11:04:44.175Z,98891.27
2019-05-09T11:07:30.632Z,98893.05
2019-05-09T11:10:22.605Z,98887.19
2019-05-09T11:12:37.162Z,98886.46
2019-05-09T11:15:09.159Z,98886.50
2019-05-09T11:17:40.163Z,98887.48
2019-05-09T11:20:12.125Z,98876.31
2019-05-09T11:22:43.008Z,98889.63
2019-05-09T11:25:13.939Z,98889.48
2019-05-09T11:27:44.605Z,98884.96
2019-05-09T11:30:17.666Z,98881.30
2019-05-09T11:32:48.541Z,98877.07
2019-05-09T11:35:19.537Z,98866.48
2019-05-09T11:37:50.794Z,98871.06
2019-05-09T11:40:21.465Z,98871.77
2019-05-09T11:42:52.419Z,98871.83
2019-05-09T11:45:23.379Z,98869.56
2019-05-09T11:47:54.428Z,98860.43
2019-05-09T11:50:25.146Z,98866.63
2019-05-09T11:52:56.205Z,98865.59
2019-05-09T11:55:32.396Z,98865.27
2019-05-09T11:57:59.591Z,98869.12
2019-05-09T12:00:30.284Z,98863.08
2019-05-09T12:03:00.972Z,98873.64
2019-05-09T12:05:31.993Z,98872.36
2019-05-09T12:08:02.758Z,98874.63
2019-05-09T12:10:33.849Z,98877.11
2019-05-09T12:13:04.814Z,98877.50
2019-05-09T12:15:38.762Z,98880.22
2019-05-09T12:18:11.719Z,98881.28
2019-05-09T12:20:42.620Z,98882.56
2019-05-09T12:23:13.875Z,98879.80
2019-05-09T12:25:45.038Z,98881.80
2019-05-09T12:28:15.713Z,98883.38
2019-05-09T12:30:48.995Z,98883.09
2019-05-09T12:33:19.217Z,98878.00
2019-05-09T12:36:04.096Z,98879.66
2019-05-09T12:38:34.788Z,98881.41
2019-05-09T12:41:07.846Z,98868.62
2019-05-09T12:43:38.311Z,98868.77
2019-05-09T12:46:09.689Z,98871.64
2019-05-09T12:48:40.853Z,98875.22
2019-05-09T12:51:14.022Z,98878.92
2019-05-09T12:53:48.170Z,98876.88
2019-05-09T12:56:18.809Z,98878.73
2019-05-09T12:58:50.008Z,98871.36
2019-05-09T13:01:21.208Z,98871.81
2019-05-09T13:03:52.325Z,98864.18
2019-05-09T13:06:23.138Z,98856.75
2019-05-09T13:08:54.424Z,98857.89
2019-05-09T13:11:27.417Z,98849.89
2019-05-09T13:13:58.104Z,98854.41
2019-05-09T13:16:47.432Z,98854.29
2019-05-09T13:19:09.078Z,98852.42
2019-05-09T13:21:40.096Z,98850.39
2019-05-09T13:24:11.321Z,98859.72
2019-05-09T13:26:43.745Z,98855.22
2019-05-09T13:29:14.793Z,98856.77
2019-05-09T13:31:48.257Z,98859.05
2019-05-09T13:34:19.078Z,98858.20
2019-05-09T13:36:49.908Z,98857.11
2019-05-09T13:39:20.749Z,98859.11
2019-05-09T13:41:51.477Z,98859.50
2019-05-09T13:44:22.669Z,98856.08
2019-05-09T13:46:53.348Z,98850.69
2019-05-09T13:49:24.195Z,98848.85
2019-05-09T13:52:01.290Z,98854.51
2019-05-09T13:54:28.511Z,98846.12
2019-05-09T13:57:01.516Z,98838.88
2019-05-09T13:59:33.614Z,98839.73
2019-05-09T14:02:04.773Z,98839.20
2019-05-09T14:04:38.846Z,98841.09
2019-05-09T14:07:08.498Z,98839.37
2019-05-09T14:09:39.415Z,98836.53
2019-05-09T14:12:10.638Z,98846.67
2019-05-09T14:14:41.558Z,98837.30
2019-05-09T14:17:13.899Z,98840.65
2019-05-09T14:19:46.857Z,98844.17
2019-05-09T14:22:18.620Z,98852.56
2019-05-09T14:24:49.315Z,98855.92
2019-05-09T14:27:20.186Z,98853.28
2019-05-09T14:29:51.200Z,98858.52
2019-05-09T14:32:22.226Z,98857.30
2019-05-09T14:34:52.990Z,98852.89
2019-05-09T14:37:24.112Z,98857.52
2019-05-09T14:39:58.833Z,98855.80
2019-05-09T14:42:29.049Z,98854.53
2019-05-09T14:45:00.311Z,98856.61
2019-05-09T14:47:31.484Z,98849.23
2019-05-09T14:50:02.181Z,98850.91
2019-05-09T14:52:33.369Z,98852.99
2019-05-09T14:55:08.249Z,98847.55
2019-05-09T14:57:38.936Z,98851.12
2019-05-09T15:00:11.735Z,98850.91
2019-05-09T15:02:42.675Z,98850.09
2019-05-09T15:05:14.023Z,98850.72
2019-05-09T15:07:47.663Z,98846.80
2019-05-09T15:10:18.936Z,98847.47
2019-05-09T15:12:50.068Z,98839.41
2019-05-09T15:15:20.951Z,98827.94
2019-05-09T15:17:52.129Z,98851.25
2019-05-09T15:20:23.402Z,98844.16
2019-05-09T15:22:54.053Z,98839.79
2019-05-09T15:25:24.965Z,98845.56
2019-05-09T15:27:57.975Z,98842.76
2019-05-09T15:30:28.865Z,98844.39
2019-05-09T15:32:59.659Z,98842.27
2019-05-09T15:35:31.162Z,98842.73
2019-05-09T15:38:02.331Z,98841.19
2019-05-09T15:40:33.216Z,98829.81
2019-05-09T15:43:04.377Z,98831.88
2019-05-09T15:45:36.922Z,98837.86
2019-05-09T15:48:07.776Z,98831.41
2019-05-09T15:50:38.410Z,98835.34
2019-05-09T15:53:09.258Z,98825.91
2019-05-09T15:55:44.012Z,98822.61
2019-05-09T15:58:14.948Z,98819.95
2019-05-09T16:00:47.828Z,98816.17
2019-05-09T16:03:18.782Z,98811.59
2019-05-09T16:05:49.818Z,98813.73
2019-05-09T16:08:21.713Z,98815.80
2019-05-09T16:10:52.884Z,98814.66
2019-05-09T16:13:25.150Z,98812.84
2019-05-09T16:15:57.578Z,98818.34
2019-05-09T16:18:29.430Z,98814.19
2019-05-09T16:21:00.199Z,98814.77
2019-05-09T16:23:31.021Z,98811.59
2019-05-09T16:26:02.083Z,98809.84
2019-05-09T16:28:32.995Z,98806.41
2019-05-09T16:31:04.083Z,98808.20
2019-05-09T16:33:35.091Z,98803.73
2019-05-09T16:36:07.481Z,98812.19
2019-05-09T16:38:45.689Z,98815.34
2019-05-09T16:41:11.234Z,98819.94
2019-05-09T16:43:42.216Z,98811.73
2019-05-09T16:46:13.048Z,98807.31
2019-05-09T16:48:44.806Z,98815.04
2019-05-09T16:51:18.185Z,98818.11
2019-05-09T16:53:49.873Z,98825.09
2019-05-09T16:56:21.408Z,98815.53
2019-05-09T16:58:53.954Z,98809.00
2019-05-09T17:01:25.035Z,98814.52
2019-05-09T17:03:57.522Z,98815.41
2019-05-09T17:06:29.210Z,98819.58
2019-05-09T17:09:00.826Z,98814.59
2019-05-09T17:11:35.321Z,98816.62
2019-05-09T17:14:08.273Z,98818.94
2019-05-09T17:16:39.841Z,98826.17
2019-05-09T17:19:11.186Z,98827.69
2019-05-09T17:21:43.494Z,98822.47
2019-05-09T17:24:15.910Z,98828.42
2019-05-09T17:26:48.836Z,98832.44
2019-05-09T17:29:19.691Z,98833.91
2019-05-09T17:31:50.778Z,98835.84
2019-05-09T17:34:21.831Z,98834.44
2019-05-09T17:36:53.110Z,98834.70
2019-05-09T17:39:24.147Z,98833.99
2019-05-09T17:41:54.915Z,98838.91
2019-05-09T17:44:28.095Z,98836.85
2019-05-09T17:46:58.382Z,98840.96
2019-05-09T17:49:29.671Z,98845.99
2019-05-09T17:52:00.946Z,98846.06
2019-05-09T17:54:32.130Z,98854.02
2019-05-09T17:57:03.499Z,98849.09
2019-05-09T17:59:34.673Z,98849.31
2019-05-09T18:02:05.525Z,98852.23
2019-05-09T18:04:37.851Z,98854.86
2019-05-09T18:07:09.264Z,98858.05
2019-05-09T18:09:40.456Z,98863.85
2019-05-09T18:12:11.642Z,98862.38
2019-05-09T18:14:42.763Z,98867.00
2019-05-09T18:17:20.218Z,98868.99
2019-05-09T18:19:51.012Z,98867.38
2019-05-09T18:22:22.048Z,98865.73
2019-05-09T18:24:53.093Z,98868.05
2019-05-09T18:27:24.202Z,98868.66
2019-05-09T18:29:58.108Z,98868.95
2019-05-09T18:32:38.343Z,98869.86
2019-05-09T18:35:27.819Z,98864.33
2019-05-09T18:37:59.496Z,98871.50
2019-05-09T18:40:30.742Z,98875.60
2019-05-09T18:43:01.518Z,98876.02
2019-05-09T18:45:32.255Z,98876.27
2019-05-09T18:48:02.937Z,98883.55
2019-05-09T18:50:34.000Z,98883.42
2019-05-09T18:53:05.110Z,98885.55
2019-05-09T18:55:35.913Z,98891.67
2019-05-09T18:58:06.786Z,98888.59
2019-05-09T19:03:04.888Z,98892.15
2019-05-09T19:05:35.686Z,98889.03
2019-05-09T19:08:06.867Z,98892.55
2019-05-09T19:10:37.693Z,98896.76
2019-05-09T19:13:08.737Z,98895.89
2019-05-09T19:15:41.665Z,98900.31
2019-05-09T19:18:25.808Z,98908.52
2019-05-09T19:20:58.629Z,98916.92
2019-05-09T19:23:29.761Z,98922.97
2019-05-09T19:26:02.466Z,98925.91
2019-05-09T19:28:34.679Z,98927.59
2019-05-09T19:31:05.382Z,98921.57
2019-05-09T19:33:36.481Z,98929.50
2019-05-09T19:36:07.691Z,98917.23
2019-05-09T19:38:42.393Z,98927.13
2019-05-09T19:41:13.378Z,98922.62
2019-05-09T19:43:44.398Z,98924.26
2019-05-09T19:46:15.484Z,98928.81
2019-05-09T19:48:46.485Z,98926.17
2019-05-09T19:51:17.510Z,98922.74
2019-05-09T19:53:48.483Z,98917.84
2019-05-09T19:56:19.224Z,98929.10
2019-05-09T19:58:49.912Z,98930.09
2019-05-09T20:01:20.643Z,98924.25
2019-05-09T20:03:51.670Z,98923.12
2019-05-09T20:06:22.627Z,98932.88
2019-05-09T20:08:53.461Z,98930.36
2019-05-09T20:11:35.346Z,98936.63
2019-05-09T20:14:10.436Z,98930.24
2019-05-09T20:16:43.147Z,98935.89
2019-05-09T20:19:14.890Z,98938.70
2019-05-09T20:21:46.325Z,98936.90
2019-05-09T20:24:17.465Z,98928.73
2019-05-09T20:26:48.626Z,98928.73
2019-05-09T20:29:21.269Z,98935.50
2019-05-09T20:31:53.064Z,98937.12
2019-05-09T20:34:23.770Z,98949.83
2019-05-09T20:36:54.547Z,98950.86
2019-05-09T20:39:25.485Z,98953.03
2019-05-09T20:41:56.702Z,98950.40
2019-05-09T20:44:27.938Z,98953.02
2019-05-09T20:46:59.281Z,98957.64
2019-05-09T20:49:30.527Z,98953.42
2019-05-09T20:52:01.773Z,98961.86
2019-05-09T20:54:32.930Z,98959.46
2019-05-09T20:57:04.281Z,98958.94
2019-05-09T20:59:35.513Z,98959.48
2019-05-09T21:02:06.820Z,98966.97
2019-05-09T21:04:38.179Z,98961.23
2019-05-09T21:07:09.038Z,98963.92
2019-05-09T21:09:40.289Z,98966.16
2019-05-09T21:12:11.502Z,98966.16
2019-05-09T21:14:43.771Z,98971.37
2019-05-09T21:17:14.945Z,98974.98
2019-05-09T21:19:46.787Z,98978.65
2019-05-09T21:22:17.727Z,98975.36
2019-05-09T21:24:48.694Z,98977.22
2019-05-09T21:27:19.934Z,98982.00
2019-05-09T21:29:50.793Z,98990.05
2019-05-09T21:32:22.401Z,98991.53
2019-05-09T21:34:53.844Z,99002.13
2019-05-09T21:37:24.593Z,99004.74
2019-05-09T21:39:55.284Z,99006.23
2019-05-09T21:42:25.948Z,99009.58
2019-05-09T21:45:00.060Z,99013.59
2019-05-09T21:47:31.008Z,99009.84
2019-05-09T21:50:02.083Z,99010.47
2019-05-09T21:52:34.438Z,99012.33
2019-05-09T21:55:06.826Z,99015.66
2019-05-09T21:57:37.759Z,99022.68
2019-05-09T22:00:16.358Z,99021.34
2019-05-09T22:02:51.241Z,99022.06
2019-05-09T22:05:22.361Z,99030.32
2019-05-09T22:07:53.365Z,99030.05
2019-05-09T22:10:24.015Z,99031.59
2019-05-09T22:12:55.034Z,99033.00
2019-05-09T22:15:26.063Z,99036.20
2019-05-09T22:17:57.261Z,99037.55
2019-05-09T22:20:28.263Z,99039.16
2019-05-09T22:22:59.288Z,99044.72
2019-05-09T22:25:30.336Z,99043.59
2019-05-09T22:28:01.001Z,99048.08
2019-05-09T22:30:31.681Z,99043.78
2019-05-09T22:33:02.337Z,99039.84
2019-05-09T22:35:33.113Z,99046.84
2019-05-09T22:38:03.802Z,99043.98
2019-05-09T22:40:35.461Z,99046.08
2019-05-09T22:43:06.538Z,99046.59
2019-05-09T22:45:37.898Z,99047.11
2019-05-09T22:48:08.910Z,99042.40
2019-05-09T22:50:39.662Z,99058.53
2019-05-09T22:53:10.626Z,99064.92
2019-05-09T22:55:41.845Z,99064.52
2019-05-09T22:58:12.511Z,99063.98
2019-05-09T23:00:43.258Z,99062.89
2019-05-09T23:03:14.040Z,99065.27
2019-05-09T23:05:44.747Z,99063.30
2019-05-09T23:08:15.851Z,99066.65
2019-05-09T23:10:46.497Z,99070.04
2019-05-09T23:13:17.594Z,99074.73
2019-05-09T23:15:48.630Z,99072.37
2019-05-09T23:18:19.646Z,99070.67
2019-05-09T23:20:52.083Z,99070.67
2019-05-09T23:23:30.701Z,99070.20
2019-05-09T23:26:01.797Z,99070.91
2019-05-09T23:28:32.910Z,99075.45
2019-05-09T23:31:05.235Z,99076.00
2019-05-09T23:33:38.084Z,99082.18
2019-05-09T23:36:09.135Z,99083.12
2019-05-09T23:38:58.216Z,99092.22
2019-05-09T23:41:29.787Z,99087.69
2019-05-09T23:44:00.506Z,99090.36
2019-05-09T23:46:31.510Z,99088.12
2019-05-09T23:49:02.556Z,99092.41
2019-05-09T23:51:49.628Z,99091.50
2019-05-09T23:54:46.712Z,99090.59
2019-05-09T23:57:31.203Z,99091.30
